^^
Saratoga-Weather Station Historical Data
Daily Summary for January 11, 2021 Units:  Both    English   Metric
Daily Weekly Monthly Yearly Custom
  High: Low: Average:
Temperature: 35.2 °F /  1.8 °C 22.6 °F /  -5.2 °C 29.3 °F /  -1.5 °C
Dew Point: 32 °F /  0 °C 21.2 °F /  -6 °C 26.2 °F /  -3.2 °C
Humidity: 96% 78% 89%
Wind Speed: 6.9mph /  11.1km/h - 0.9mph /  1.4km/h
Wind Gust: 10mph /  16.1km/h - -
Wind- - SW
Pressure: 30.3 in /  1024.4 hPa 30.1 in /  1018.3 hPa -
Precipitation: 0 in /  0.0 mm    
Historical Graphs
 
 
Tabular Data for January 11, 2021
Time Temperature Dew Point Pressure Wind Wind Speed Wind Gust Humidity Rainfall Rate (Hourly) solar
00:03 26.1 °F /  -3.3 °C 24.3 °F /  -4.3 °C 30.2in /  1024.0hPa Calm     93% 0in /  0.0mm 0 W/m2
00:08 25.9 °F /  -3.4 °C 24.1 °F /  -4.4 °C 30.2in /  1024.0hPa Calm     93% 0in /  0.0mm 0 W/m2
00:13 25.9 °F /  -3.4 °C 23.9 °F /  -4.5 °C 30.2in /  1023.7hPa Calm     92% 0in /  0.0mm 0 W/m2
00:18 25.7 °F /  -3.5 °C 23.7 °F /  -4.6 °C 30.2in /  1023.7hPa Calm     92% 0in /  0.0mm 0 W/m2
00:23 25.5 °F /  -3.6 °C 23.5 °F /  -4.7 °C 30.2in /  1023.7hPa Calm     92% 0in /  0.0mm 0 W/m2
00:28 25.5 °F /  -3.6 °C 23.7 °F /  -4.6 °C 30.2in /  1023.7hPa Calm     93% 0in /  0.0mm 0 W/m2
00:33 25.5 °F /  -3.6 °C 23.7 °F /  -4.6 °C 30.2in /  1023.7hPa Calm     93% 0in /  0.0mm 0 W/m2
00:38 25.5 °F /  -3.6 °C 23.7 °F /  -4.6 °C 30.2in /  1023.7hPa Calm     93% 0in /  0.0mm 0 W/m2
00:43 25.5 °F /  -3.6 °C 23.7 °F /  -4.6 °C 30.2in /  1023.4hPa Calm     93% 0in /  0.0mm 0 W/m2
00:48 25.5 °F /  -3.6 °C 23.7 °F /  -4.6 °C 30.2in /  1023.4hPa Calm     93% 0in /  0.0mm 0 W/m2
00:53 25.3 °F /  -3.7 °C 23.5 °F /  -4.7 °C 30.2in /  1023.4hPa Calm     93% 0in /  0.0mm 0 W/m2
00:58 25.3 °F /  -3.7 °C 23.5 °F /  -4.7 °C 30.2in /  1023.4hPa Calm     93% 0in /  0.0mm 0 W/m2
01:03 25.2 °F /  -3.8 °C 23.4 °F /  -4.8 °C 30.2in /  1023.4hPa Calm     93% 0in /  0.0mm 0 W/m2
01:08 25 °F /  -3.9 °C 23.2 °F /  -4.9 °C 30.2in /  1023.4hPa Calm     93% 0in /  0.0mm 0 W/m2
01:13 25 °F /  -3.9 °C 23.2 °F /  -4.9 °C 30.2in /  1023.4hPa Calm     93% 0in /  0.0mm 0 W/m2
01:18 24.8 °F /  -4 °C 23 °F /  -5 °C 30.2in /  1023.4hPa Calm     93% 0in /  0.0mm 0 W/m2
01:23 24.8 °F /  -4 °C 23 °F /  -5 °C 30.2in /  1023.4hPa Calm     93% 0in /  0.0mm 0 W/m2
01:28 24.6 °F /  -4.1 °C 22.8 °F /  -5.1 °C 30.2in /  1023.4hPa Calm     93% 0in /  0.0mm 0 W/m2
01:33 24.6 °F /  -4.1 °C 22.8 °F /  -5.1 °C 30.2in /  1023.4hPa Calm     93% 0in /  0.0mm 0 W/m2
01:38 24.6 °F /  -4.1 °C 22.8 °F /  -5.1 °C 30.2in /  1023.4hPa Calm   1mph /  1.6km/h 93% 0in /  0.0mm 0 W/m2
01:43 24.8 °F /  -4 °C 23.4 °F /  -4.8 °C 30.2in /  1023.4hPa Calm   1mph /  1.6km/h 94% 0in /  0.0mm 0 W/m2
01:48 24.8 °F /  -4 °C 23.4 °F /  -4.8 °C 30.2in /  1023.4hPa Calm     94% 0in /  0.0mm 0 W/m2
01:53 24.6 °F /  -4.1 °C 22.8 °F /  -5.1 °C 30.2in /  1023.4hPa Calm     93% 0in /  0.0mm 0 W/m2
01:58 24.6 °F /  -4.1 °C 22.8 °F /  -5.1 °C 30.2in /  1023.4hPa Calm     93% 0in /  0.0mm 0 W/m2
02:03 24.4 °F /  -4.2 °C 22.6 °F /  -5.2 °C 30.2in /  1023.7hPa Calm     93% 0in /  0.0mm 0 W/m2
02:08 24.3 °F /  -4.3 °C 22.5 °F /  -5.3 °C 30.2in /  1023.7hPa Calm     93% 0in /  0.0mm 0 W/m2
02:13 24.3 °F /  -4.3 °C 22.5 °F /  -5.3 °C 30.2in /  1023.7hPa Calm     93% 0in /  0.0mm 0 W/m2
02:18 24.3 °F /  -4.3 °C 22.5 °F /  -5.3 °C 30.2in /  1024.0hPa Calm     93% 0in /  0.0mm 0 W/m2
02:23 24.3 °F /  -4.3 °C 22.8 °F /  -5.1 °C 30.2in /  1024.0hPa Calm     94% 0in /  0.0mm 0 W/m2
02:28 24.1 °F /  -4.4 °C 22.6 °F /  -5.2 °C 30.2in /  1024.0hPa Calm     94% 0in /  0.0mm 0 W/m2
02:33 24.1 °F /  -4.4 °C 22.6 °F /  -5.2 °C 30.2in /  1024.0hPa Calm     94% 0in /  0.0mm 0 W/m2
02:38 24.1 °F /  -4.4 °C 22.6 °F /  -5.2 °C 30.2in /  1024.0hPa Calm     94% 0in /  0.0mm 0 W/m2
02:43 24.1 °F /  -4.4 °C 22.6 °F /  -5.2 °C 30.2in /  1024.0hPa Calm     94% 0in /  0.0mm 0 W/m2
02:48 24.3 °F /  -4.3 °C 22.8 °F /  -5.1 °C 30.2in /  1024.0hPa Calm     94% 0in /  0.0mm 0 W/m2
02:53 24.1 °F /  -4.4 °C 22.6 °F /  -5.2 °C 30.2in /  1024.0hPa Calm     94% 0in /  0.0mm 0 W/m2
02:58 24.1 °F /  -4.4 °C 22.6 °F /  -5.2 °C 30.2in /  1024.0hPa Calm     94% 0in /  0.0mm 0 W/m2
03:03 24.1 °F /  -4.4 °C 22.6 °F /  -5.2 °C 30.2in /  1024.0hPa Calm     94% 0in /  0.0mm 0 W/m2
03:08 24.1 °F /  -4.4 °C 22.6 °F /  -5.2 °C 30.2in /  1023.7hPa SE 2mph /  3.2km/h 2mph /  3.2km/h 94% 0in /  0.0mm 0 W/m2
03:13 24.3 °F /  -4.3 °C 22.8 °F /  -5.1 °C 30.2in /  1023.7hPa SE 0.9mph /  1.4km/h 1mph /  1.6km/h 94% 0in /  0.0mm 0 W/m2
03:18 24.4 °F /  -4.2 °C 23 °F /  -5 °C 30.2in /  1023.7hPa Calm     94% 0in /  0.0mm 0 W/m2
03:23 24.4 °F /  -4.2 °C 23.2 °F /  -4.9 °C 30.2in /  1023.7hPa Calm     95% 0in /  0.0mm 0 W/m2
03:28 24.4 °F /  -4.2 °C 23 °F /  -5 °C 30.2in /  1023.7hPa Calm   1mph /  1.6km/h 94% 0in /  0.0mm 0 W/m2
03:33 24.4 °F /  -4.2 °C 23 °F /  -5 °C 30.2in /  1023.7hPa Calm     94% 0in /  0.0mm 0 W/m2
03:38 24.3 °F /  -4.3 °C 22.8 °F /  -5.1 °C 30.2in /  1023.7hPa Calm   1mph /  1.6km/h 94% 0in /  0.0mm 0 W/m2
03:44 24.3 °F /  -4.3 °C 22.8 °F /  -5.1 °C 30.2in /  1023.7hPa Calm     94% 0in /  0.0mm 0 W/m2
03:49 24.3 °F /  -4.3 °C 22.8 °F /  -5.1 °C 30.2in /  1023.7hPa Calm     94% 0in /  0.0mm 0 W/m2
03:54 24.1 °F /  -4.4 °C 22.6 °F /  -5.2 °C 30.2in /  1023.4hPa Calm     94% 0in /  0.0mm 0 W/m2
03:59 24.1 °F /  -4.4 °C 22.6 °F /  -5.2 °C 30.2in /  1023.7hPa Calm     94% 0in /  0.0mm 0 W/m2
04:04 24.1 °F /  -4.4 °C 22.6 °F /  -5.2 °C 30.2in /  1023.7hPa Calm     94% 0in /  0.0mm 0 W/m2
04:09 24.1 °F /  -4.4 °C 22.6 °F /  -5.2 °C 30.2in /  1023.7hPa Calm     94% 0in /  0.0mm 0 W/m2
04:14 23.9 °F /  -4.5 °C 22.5 °F /  -5.3 °C 30.2in /  1023.7hPa Calm     94% 0in /  0.0mm 0 W/m2
04:19 23.7 °F /  -4.6 °C 22.3 °F /  -5.4 °C 30.2in /  1024.0hPa Calm     94% 0in /  0.0mm 0 W/m2
04:24 23.7 °F /  -4.6 °C 22.3 °F /  -5.4 °C 30.2in /  1023.7hPa Calm     94% 0in /  0.0mm 0 W/m2
04:29 23.7 °F /  -4.6 °C 22.3 °F /  -5.4 °C 30.2in /  1023.7hPa Calm     94% 0in /  0.0mm 0 W/m2
04:34 23.7 °F /  -4.6 °C 22.3 °F /  -5.4 °C 30.2in /  1023.7hPa Calm     94% 0in /  0.0mm 0 W/m2
04:39 23.5 °F /  -4.7 °C 22.1 °F /  -5.5 °C 30.2in /  1023.7hPa Calm     94% 0in /  0.0mm 0 W/m2
04:44 23.5 °F /  -4.7 °C 22.1 °F /  -5.5 °C 30.2in /  1023.7hPa Calm     94% 0in /  0.0mm 0 W/m2
04:49 23.5 °F /  -4.7 °C 22.1 °F /  -5.5 °C 30.2in /  1023.7hPa Calm     94% 0in /  0.0mm 0 W/m2
04:54 23.4 °F /  -4.8 °C 21.9 °F /  -5.6 °C 30.2in /  1023.7hPa Calm     94% 0in /  0.0mm 0 W/m2
04:59 23.4 °F /  -4.8 °C 21.9 °F /  -5.6 °C 30.2in /  1023.7hPa Calm     94% 0in /  0.0mm 0 W/m2
05:04 23.4 °F /  -4.8 °C 21.9 °F /  -5.6 °C 30.2in /  1023.4hPa Calm     94% 0in /  0.0mm 0 W/m2
05:09 23.4 °F /  -4.8 °C 21.9 °F /  -5.6 °C 30.2in /  1023.4hPa Calm     94% 0in /  0.0mm 0 W/m2
05:14 23.2 °F /  -4.9 °C 21.7 °F /  -5.7 °C 30.2in /  1023.4hPa Calm     94% 0in /  0.0mm 0 W/m2
05:19 23.4 °F /  -4.8 °C 21.9 °F /  -5.6 °C 30.2in /  1023.4hPa Calm     94% 0in /  0.0mm 0 W/m2
05:24 23.4 °F /  -4.8 °C 21.9 °F /  -5.6 °C 30.2in /  1023.4hPa Calm     94% 0in /  0.0mm 0 W/m2
05:29 23.4 °F /  -4.8 °C 21.9 °F /  -5.6 °C 30.2in /  1023.4hPa Calm     94% 0in /  0.0mm 0 W/m2
05:34 23.4 °F /  -4.8 °C 22.1 °F /  -5.5 °C 30.2in /  1023.4hPa Calm     95% 0in /  0.0mm 0 W/m2
05:39 23.4 °F /  -4.8 °C 22.1 °F /  -5.5 °C 30.2in /  1023.4hPa Calm     95% 0in /  0.0mm 0 W/m2
05:44 23.4 °F /  -4.8 °C 22.1 °F /  -5.5 °C 30.2in /  1023.4hPa Calm     95% 0in /  0.0mm 0 W/m2
05:49 23.4 °F /  -4.8 °C 22.1 °F /  -5.5 °C 30.2in /  1023.4hPa Calm     95% 0in /  0.0mm 0 W/m2
05:54 23.2 °F /  -4.9 °C 21.7 °F /  -5.7 °C 30.2in /  1023.4hPa Calm     94% 0in /  0.0mm 0 W/m2
05:59 23.2 °F /  -4.9 °C 21.7 °F /  -5.7 °C 30.2in /  1023.4hPa Calm     94% 0in /  0.0mm 0 W/m2
06:04 23 °F /  -5 °C 21.6 °F /  -5.8 °C 30.2in /  1023.7hPa Calm     94% 0in /  0.0mm 0 W/m2
06:09 22.8 °F /  -5.1 °C 21.4 °F /  -5.9 °C 30.2in /  1023.7hPa Calm     94% 0in /  0.0mm 0 W/m2
06:14 22.8 °F /  -5.1 °C 21.4 °F /  -5.9 °C 30.2in /  1023.4hPa Calm     94% 0in /  0.0mm 0 W/m2
06:19 22.6 °F /  -5.2 °C 21.2 °F /  -6 °C 30.2in /  1023.7hPa Calm     94% 0in /  0.0mm 0 W/m2
06:24 22.6 °F /  -5.2 °C 21.2 °F /  -6 °C 30.2in /  1023.4hPa Calm     94% 0in /  0.0mm 0 W/m2
06:29 22.6 °F /  -5.2 °C 21.2 °F /  -6 °C 30.2in /  1023.7hPa Calm     94% 0in /  0.0mm 0 W/m2
06:34 22.6 °F /  -5.2 °C 21.4 °F /  -5.9 °C 30.2in /  1023.7hPa Calm     95% 0in /  0.0mm 0 W/m2
06:39 22.6 °F /  -5.2 °C 21.4 °F /  -5.9 °C 30.2in /  1023.4hPa Calm     95% 0in /  0.0mm 0 W/m2
06:44 22.6 °F /  -5.2 °C 21.4 °F /  -5.9 °C 30.2in /  1023.4hPa Calm     95% 0in /  0.0mm 0 W/m2
06:49 22.6 °F /  -5.2 °C 21.4 °F /  -5.9 °C 30.2in /  1023.4hPa Calm     95% 0in /  0.0mm 0 W/m2
06:54 22.8 °F /  -5.1 °C 21.6 °F /  -5.8 °C 30.2in /  1023.4hPa Calm     95% 0in /  0.0mm 0 W/m2
06:59 22.8 °F /  -5.1 °C 21.6 °F /  -5.8 °C 30.2in /  1023.7hPa Calm     95% 0in /  0.0mm 0 W/m2
07:04 22.8 °F /  -5.1 °C 21.6 °F /  -5.8 °C 30.2in /  1023.4hPa Calm     95% 0in /  0.0mm 0 W/m2
07:09 22.8 °F /  -5.1 °C 21.6 °F /  -5.8 °C 30.2in /  1023.4hPa Calm     95% 0in /  0.0mm 0 W/m2
07:14 22.8 °F /  -5.1 °C 21.6 °F /  -5.8 °C 30.2in /  1023.4hPa Calm     95% 0in /  0.0mm 0 W/m2
07:19 22.8 °F /  -5.1 °C 21.6 °F /  -5.8 °C 30.2in /  1023.4hPa Calm     95% 0in /  0.0mm 0 W/m2
07:24 22.8 °F /  -5.1 °C 21.6 °F /  -5.8 °C 30.2in /  1023.4hPa Calm     95% 0in /  0.0mm 0 W/m2
07:29 22.8 °F /  -5.1 °C 21.6 °F /  -5.8 °C 30.2in /  1023.4hPa Calm     95% 0in /  0.0mm 0 W/m2
07:34 22.8 °F /  -5.1 °C 21.6 °F /  -5.8 °C 30.2in /  1023.4hPa Calm     95% 0in /  0.0mm 0 W/m2
07:39 22.8 °F /  -5.1 °C 21.6 °F /  -5.8 °C 30.2in /  1023.4hPa Calm     95% 0in /  0.0mm 0 W/m2
07:44 22.8 °F /  -5.1 °C 21.6 °F /  -5.8 °C 30.2in /  1023.4hPa Calm     95% 0in /  0.0mm 0 W/m2
07:49 22.8 °F /  -5.1 °C 21.6 °F /  -5.8 °C 30.2in /  1023.4hPa Calm     95% 0in /  0.0mm 0 W/m2
07:54 22.8 °F /  -5.1 °C 21.6 °F /  -5.8 °C 30.2in /  1023.4hPa Calm     95% 0in /  0.0mm 0 W/m2
07:59 22.8 °F /  -5.1 °C 21.6 °F /  -5.8 °C 30.2in /  1023.4hPa Calm     95% 0in /  0.0mm 0 W/m2
08:04 22.8 °F /  -5.1 °C 21.6 °F /  -5.8 °C 30.2in /  1023.4hPa Calm     95% 0in /  0.0mm 0 W/m2
08:09 22.8 °F /  -5.1 °C 21.6 °F /  -5.8 °C 30.2in /  1023.4hPa Calm     95% 0in /  0.0mm 0 W/m2
08:14 22.8 °F /  -5.1 °C 21.6 °F /  -5.8 °C 30.2in /  1023.4hPa Calm     95% 0in /  0.0mm 0 W/m2
08:19 22.6 °F /  -5.2 °C 21.4 °F /  -5.9 °C 30.2in /  1023.4hPa Calm     95% 0in /  0.0mm 0 W/m2
08:24 22.6 °F /  -5.2 °C 21.4 °F /  -5.9 °C 30.2in /  1023.4hPa Calm     95% 0in /  0.0mm 0 W/m2
08:29 22.6 °F /  -5.2 °C 21.4 °F /  -5.9 °C 30.2in /  1023.4hPa Calm     95% 0in /  0.0mm 0 W/m2
08:34 22.6 °F /  -5.2 °C 21.4 °F /  -5.9 °C 30.2in /  1023.4hPa Calm     95% 0in /  0.0mm 5 W/m2
08:39 22.6 °F /  -5.2 °C 21.4 °F /  -5.9 °C 30.2in /  1023.7hPa Calm     95% 0in /  0.0mm 7 W/m2
08:44 22.6 °F /  -5.2 °C 21.4 °F /  -5.9 °C 30.2in /  1023.7hPa Calm     95% 0in /  0.0mm 7 W/m2
08:49 22.6 °F /  -5.2 °C 21.4 °F /  -5.9 °C 30.2in /  1023.7hPa Calm     95% 0in /  0.0mm 9 W/m2
08:54 22.6 °F /  -5.2 °C 21.4 °F /  -5.9 °C 30.2in /  1023.7hPa Calm     95% 0in /  0.0mm 11 W/m2
08:59 22.8 °F /  -5.1 °C 21.6 °F /  -5.8 °C 30.2in /  1023.7hPa SE 0.9mph /  1.4km/h 2mph /  3.2km/h 95% 0in /  0.0mm 12 W/m2
09:04 23 °F /  -5 °C 21.7 °F /  -5.7 °C 30.2in /  1023.7hPa Calm     95% 0in /  0.0mm 12 W/m2
09:09 23.2 °F /  -4.9 °C 21.9 °F /  -5.6 °C 30.2in /  1023.7hPa Calm   2mph /  3.2km/h 95% 0in /  0.0mm 14 W/m2
09:14 23.2 °F /  -4.9 °C 21.9 °F /  -5.6 °C 30.2in /  1023.7hPa SE 0.9mph /  1.4km/h 1mph /  1.6km/h 95% 0in /  0.0mm 14 W/m2
09:19 23.4 °F /  -4.8 °C 22.1 °F /  -5.5 °C 30.2in /  1023.7hPa Calm   1mph /  1.6km/h 95% 0in /  0.0mm 16 W/m2
09:24 23.4 °F /  -4.8 °C 22.1 °F /  -5.5 °C 30.2in /  1023.7hPa Calm     95% 0in /  0.0mm 16 W/m2
09:29 23.4 °F /  -4.8 °C 22.1 °F /  -5.5 °C 30.2in /  1023.7hPa Calm     95% 0in /  0.0mm 16 W/m2
09:34 23.4 °F /  -4.8 °C 22.1 °F /  -5.5 °C 30.2in /  1023.7hPa Calm     95% 0in /  0.0mm 18 W/m2
09:39 23.5 °F /  -4.7 °C 22.3 °F /  -5.4 °C 30.2in /  1023.7hPa Calm     95% 0in /  0.0mm 18 W/m2
09:44 23.5 °F /  -4.7 °C 22.3 °F /  -5.4 °C 30.2in /  1024.0hPa Calm   1mph /  1.6km/h 95% 0in /  0.0mm 19 W/m2
09:49 23.7 °F /  -4.6 °C 22.5 °F /  -5.3 °C 30.2in /  1024.0hPa Calm     95% 0in /  0.0mm 18 W/m2
09:54 23.7 °F /  -4.6 °C 22.5 °F /  -5.3 °C 30.2in /  1024.0hPa Calm   1mph /  1.6km/h 95% 0in /  0.0mm 19 W/m2
09:59 24.1 °F /  -4.4 °C 22.8 °F /  -5.1 °C 30.2in /  1024.0hPa Calm     95% 0in /  0.0mm 21 W/m2
10:04 24.4 °F /  -4.2 °C 23.5 °F /  -4.7 °C 30.2in /  1024.0hPa ESE 2.9mph /  4.7km/h 3mph /  4.8km/h 96% 0in /  0.0mm 23 W/m2
10:09 25 °F /  -3.9 °C 24.1 °F /  -4.4 °C 30.2in /  1023.7hPa ESE 0.9mph /  1.4km/h 2mph /  3.2km/h 96% 0in /  0.0mm 21 W/m2
10:14 25.3 °F /  -3.7 °C 24.4 °F /  -4.2 °C 30.2in /  1023.7hPa ESE 2mph /  3.2km/h 3mph /  4.8km/h 96% 0in /  0.0mm 21 W/m2
10:19 25.7 °F /  -3.5 °C 24.8 °F /  -4 °C 30.2in /  1023.7hPa ESE 2mph /  3.2km/h 2mph /  3.2km/h 96% 0in /  0.0mm 23 W/m2
10:24 25.9 °F /  -3.4 °C 25 °F /  -3.9 °C 30.2in /  1023.7hPa Calm     96% 0in /  0.0mm 25 W/m2
10:29 26.1 °F /  -3.3 °C 25.2 °F /  -3.8 °C 30.2in /  1024.0hPa Calm     96% 0in /  0.0mm 26 W/m2
10:34 26.1 °F /  -3.3 °C 24.8 °F /  -4 °C 30.2in /  1024.0hPa ESE 2mph /  3.2km/h 4mph /  6.4km/h 95% 0in /  0.0mm 30 W/m2
10:39 26.2 °F /  -3.2 °C 25 °F /  -3.9 °C 30.2in /  1024.0hPa ESE 2mph /  3.2km/h 3mph /  4.8km/h 95% 0in /  0.0mm 26 W/m2
10:44 26.6 °F /  -3 °C 25.3 °F /  -3.7 °C 30.2in /  1024.0hPa ESE 0.9mph /  1.4km/h 4mph /  6.4km/h 95% 0in /  0.0mm 28 W/m2
10:49 26.8 °F /  -2.9 °C 25.5 °F /  -3.6 °C 30.2in /  1024.0hPa ESE 0.9mph /  1.4km/h 2mph /  3.2km/h 95% 0in /  0.0mm 28 W/m2
10:54 27 °F /  -2.8 °C 25.7 °F /  -3.5 °C 30.3in /  1024.4hPa ESE 0.9mph /  1.4km/h 1mph /  1.6km/h 95% 0in /  0.0mm 28 W/m2
10:59 27 °F /  -2.8 °C 25.7 °F /  -3.5 °C 30.3in /  1024.4hPa Calm     95% 0in /  0.0mm 26 W/m2
11:04 27.1 °F /  -2.7 °C 25.9 °F /  -3.4 °C 30.2in /  1024.0hPa Calm     95% 0in /  0.0mm 25 W/m2
11:09 27.3 °F /  -2.6 °C 26.1 °F /  -3.3 °C 30.2in /  1024.0hPa Calm   1mph /  1.6km/h 95% 0in /  0.0mm 25 W/m2
11:14 27.3 °F /  -2.6 °C 26.1 °F /  -3.3 °C 30.2in /  1024.0hPa Calm   1mph /  1.6km/h 95% 0in /  0.0mm 25 W/m2
11:19 27.7 °F /  -2.4 °C 26.4 °F /  -3.1 °C 30.2in /  1024.0hPa ESE 2mph /  3.2km/h 3mph /  4.8km/h 95% 0in /  0.0mm 26 W/m2
11:24 28 °F /  -2.2 °C 26.8 °F /  -2.9 °C 30.2in /  1024.0hPa Calm   2mph /  3.2km/h 95% 0in /  0.0mm 25 W/m2
11:29 28.6 °F /  -1.9 °C 27.3 °F /  -2.6 °C 30.2in /  1024.0hPa SE 0.9mph /  1.4km/h 2mph /  3.2km/h 95% 0in /  0.0mm 25 W/m2
11:34 28.8 °F /  -1.8 °C 27.5 °F /  -2.5 °C 30.2in /  1024.0hPa ENE 0.9mph /  1.4km/h 1mph /  1.6km/h 95% 0in /  0.0mm 25 W/m2
11:39 29.1 °F /  -1.6 °C 27.9 °F /  -2.3 °C 30.2in /  1024.0hPa Calm   2mph /  3.2km/h 95% 0in /  0.0mm 28 W/m2
11:44 29.5 °F /  -1.4 °C 28 °F /  -2.2 °C 30.2in /  1024.0hPa Calm   2mph /  3.2km/h 94% 0in /  0.0mm 26 W/m2
11:49 29.7 °F /  -1.3 °C 28.2 °F /  -2.1 °C 30.2in /  1024.0hPa Calm     94% 0in /  0.0mm 28 W/m2
11:54 29.7 °F /  -1.3 °C 27.9 °F /  -2.3 °C 30.2in /  1024.0hPa Calm     93% 0in /  0.0mm 26 W/m2
11:59 29.7 °F /  -1.3 °C 27.9 °F /  -2.3 °C 30.2in /  1024.0hPa Calm   2mph /  3.2km/h 93% 0in /  0.0mm 26 W/m2
12:04 29.8 °F /  -1.2 °C 28 °F /  -2.2 °C 30.2in /  1023.7hPa Calm   2mph /  3.2km/h 93% 0in /  0.0mm 25 W/m2
12:09 30 °F /  -1.1 °C 28.2 °F /  -2.1 °C 30.2in /  1023.7hPa Calm   1mph /  1.6km/h 93% 0in /  0.0mm 25 W/m2
12:14 30.2 °F /  -1 °C 28.4 °F /  -2 °C 30.2in /  1023.7hPa ESE 0.9mph /  1.4km/h 2mph /  3.2km/h 93% 0in /  0.0mm 25 W/m2
12:19 30.4 °F /  -0.9 °C 28.6 °F /  -1.9 °C 30.2in /  1023.4hPa West 2mph /  3.2km/h 2mph /  3.2km/h 93% 0in /  0.0mm 25 W/m2
12:24 30.7 °F /  -0.7 °C 28.8 °F /  -1.8 °C 30.2in /  1023.4hPa West 2.9mph /  4.7km/h 3mph /  4.8km/h 92% 0in /  0.0mm 25 W/m2
12:29 31.5 °F /  -0.3 °C 28.9 °F /  -1.7 °C 30.2in /  1023.4hPa WSW 2mph /  3.2km/h 4mph /  6.4km/h 90% 0in /  0.0mm 25 W/m2
12:35 31.8 °F /  -0.1 °C 28.8 °F /  -1.8 °C 30.2in /  1023.4hPa WSW 2mph /  3.2km/h 4mph /  6.4km/h 88% 0in /  0.0mm 25 W/m2
12:40 32.5 °F /  0.3 °C 28.6 °F /  -1.9 °C 30.2in /  1023.4hPa WNW 2mph /  3.2km/h 3mph /  4.8km/h 85% 0in /  0.0mm 25 W/m2
12:45 32.7 °F /  0.4 °C 28.4 °F /  -2 °C 30.2in /  1023.4hPa West 2.9mph /  4.7km/h 4mph /  6.4km/h 84% 0in /  0.0mm 25 W/m2
12:50 33.1 °F /  0.6 °C 28.4 °F /  -2 °C 30.2in /  1023.0hPa NNW 4mph /  6.4km/h 6mph /  9.7km/h 83% 0in /  0.0mm 25 W/m2
12:55 33.3 °F /  0.7 °C 28.4 °F /  -2 °C 30.2in /  1023.0hPa West 0.9mph /  1.4km/h 4mph /  6.4km/h 82% 0in /  0.0mm 25 W/m2
13:00 33.3 °F /  0.7 °C 28.4 °F /  -2 °C 30.2in /  1023.0hPa WNW 2.9mph /  4.7km/h 4mph /  6.4km/h 82% 0in /  0.0mm 26 W/m2
13:05 33.4 °F /  0.8 °C 28.6 °F /  -1.9 °C 30.2in /  1023.0hPa West 2.9mph /  4.7km/h 4mph /  6.4km/h 82% 0in /  0.0mm 26 W/m2
13:10 33.4 °F /  0.8 °C 28.2 °F /  -2.1 °C 30.2in /  1023.0hPa WNW 4mph /  6.4km/h 4mph /  6.4km/h 81% 0in /  0.0mm 26 W/m2
13:15 33.6 °F /  0.9 °C 28.4 °F /  -2 °C 30.2in /  1022.7hPa WNW 0.9mph /  1.4km/h 5mph /  8km/h 81% 0in /  0.0mm 26 W/m2
13:20 33.6 °F /  0.9 °C 28.4 °F /  -2 °C 30.2in /  1022.7hPa WNW 2mph /  3.2km/h 3mph /  4.8km/h 81% 0in /  0.0mm 26 W/m2
13:25 33.6 °F /  0.9 °C 28 °F /  -2.2 °C 30.2in /  1022.7hPa SW 2.9mph /  4.7km/h 4mph /  6.4km/h 80% 0in /  0.0mm 28 W/m2
13:30 33.6 °F /  0.9 °C 28 °F /  -2.2 °C 30.2in /  1022.7hPa SW 2mph /  3.2km/h 3mph /  4.8km/h 80% 0in /  0.0mm 26 W/m2
13:35 33.8 °F /  1 °C 28.2 °F /  -2.1 °C 30.2in /  1022.4hPa West 2mph /  3.2km/h 4mph /  6.4km/h 80% 0in /  0.0mm 26 W/m2
13:40 33.8 °F /  1 °C 28.2 °F /  -2.1 °C 30.2in /  1022.4hPa West 2mph /  3.2km/h 6mph /  9.7km/h 80% 0in /  0.0mm 26 W/m2
13:45 34 °F /  1.1 °C 28.4 °F /  -2 °C 30.2in /  1022.4hPa West 2.9mph /  4.7km/h 3mph /  4.8km/h 80% 0in /  0.0mm 28 W/m2
13:50 34 °F /  1.1 °C 28.8 °F /  -1.8 °C 30.2in /  1022.4hPa WNW 4mph /  6.4km/h 4mph /  6.4km/h 81% 0in /  0.0mm 28 W/m2
13:55 34.2 °F /  1.2 °C 28.6 °F /  -1.9 °C 30.2in /  1022.4hPa WSW 2mph /  3.2km/h 4mph /  6.4km/h 80% 0in /  0.0mm 28 W/m2
14:00 34.2 °F /  1.2 °C 28.6 °F /  -1.9 °C 30.2in /  1022.4hPa West 0.9mph /  1.4km/h 3mph /  4.8km/h 80% 0in /  0.0mm 32 W/m2
14:05 34.2 °F /  1.2 °C 28.6 °F /  -1.9 °C 30.2in /  1022.4hPa WNW 0.9mph /  1.4km/h 3mph /  4.8km/h 80% 0in /  0.0mm 28 W/m2
14:10 34.2 °F /  1.2 °C 28.9 °F /  -1.7 °C 30.2in /  1022.0hPa WNW 2.9mph /  4.7km/h 7mph /  11.3km/h 81% 0in /  0.0mm 28 W/m2
14:15 34.2 °F /  1.2 °C 28.9 °F /  -1.7 °C 30.2in /  1022.0hPa Calm   3mph /  4.8km/h 81% 0in /  0.0mm 26 W/m2
14:20 34.2 °F /  1.2 °C 28.9 °F /  -1.7 °C 30.2in /  1022.0hPa Calm   1mph /  1.6km/h 81% 0in /  0.0mm 26 W/m2
14:25 34.2 °F /  1.2 °C 28.9 °F /  -1.7 °C 30.2in /  1021.7hPa West 0.9mph /  1.4km/h 3mph /  4.8km/h 81% 0in /  0.0mm 26 W/m2
14:30 34.2 °F /  1.2 °C 28.9 °F /  -1.7 °C 30.2in /  1021.7hPa Calm   1mph /  1.6km/h 81% 0in /  0.0mm 25 W/m2
14:35 34 °F /  1.1 °C 28.8 °F /  -1.8 °C 30.2in /  1021.7hPa Calm   3mph /  4.8km/h 81% 0in /  0.0mm 25 W/m2
14:40 34 °F /  1.1 °C 29.1 °F /  -1.6 °C 30.2in /  1021.7hPa WNW 2mph /  3.2km/h 3mph /  4.8km/h 82% 0in /  0.0mm 32 W/m2
14:45 34 °F /  1.1 °C 29.1 °F /  -1.6 °C 30.2in /  1021.7hPa West 2mph /  3.2km/h 4mph /  6.4km/h 82% 0in /  0.0mm 33 W/m2
14:50 34.2 °F /  1.2 °C 29.3 °F /  -1.5 °C 30.2in /  1021.7hPa West 0.9mph /  1.4km/h 3mph /  4.8km/h 82% 0in /  0.0mm 35 W/m2
14:55 34.2 °F /  1.2 °C 28.9 °F /  -1.7 °C 30.2in /  1021.7hPa West 0.9mph /  1.4km/h 2mph /  3.2km/h 81% 0in /  0.0mm 25 W/m2
15:00 34 °F /  1.1 °C 29.1 °F /  -1.6 °C 30.2in /  1021.7hPa Calm     82% 0in /  0.0mm 25 W/m2
15:05 33.8 °F /  1 °C 28.9 °F /  -1.7 °C 30.2in /  1021.3hPa NNW 2.9mph /  4.7km/h 3mph /  4.8km/h 82% 0in /  0.0mm 23 W/m2
15:10 34 °F /  1.1 °C 29.1 °F /  -1.6 °C 30.2in /  1021.3hPa Calm   1mph /  1.6km/h 82% 0in /  0.0mm 32 W/m2
15:15 34.2 °F /  1.2 °C 28.9 °F /  -1.7 °C 30.2in /  1021.7hPa WNW 2mph /  3.2km/h 3mph /  4.8km/h 81% 0in /  0.0mm 74 W/m2
15:20 34.3 °F /  1.3 °C 28.8 °F /  -1.8 °C 30.2in /  1021.7hPa Calm     80% 0in /  0.0mm 63 W/m2
15:25 34.5 °F /  1.4 °C 28.9 °F /  -1.7 °C 30.2in /  1021.7hPa NW 4mph /  6.4km/h 4mph /  6.4km/h 80% 0in /  0.0mm 33 W/m2
15:30 34.5 °F /  1.4 °C 28.8 °F /  -1.8 °C 30.2in /  1021.7hPa NW 2.9mph /  4.7km/h 4mph /  6.4km/h 79% 0in /  0.0mm 37 W/m2
15:35 34.9 °F /  1.6 °C 29.1 °F /  -1.6 °C 30.2in /  1021.7hPa Calm   3mph /  4.8km/h 79% 0in /  0.0mm 51 W/m2
15:40 34.9 °F /  1.6 °C 29.1 °F /  -1.6 °C 30.2in /  1021.7hPa WNW 2.9mph /  4.7km/h 4mph /  6.4km/h 79% 0in /  0.0mm 40 W/m2
15:45 34.9 °F /  1.6 °C 28.8 °F /  -1.8 °C 30.2in /  1021.7hPa Calm   2mph /  3.2km/h 78% 0in /  0.0mm 51 W/m2
15:50 34.9 °F /  1.6 °C 28.8 °F /  -1.8 °C 30.2in /  1021.7hPa WNW 0.9mph /  1.4km/h 4mph /  6.4km/h 78% 0in /  0.0mm 47 W/m2
15:55 34.9 °F /  1.6 °C 28.8 °F /  -1.8 °C 30.2in /  1021.7hPa WNW 4mph /  6.4km/h 4mph /  6.4km/h 78% 0in /  0.0mm 39 W/m2
16:00 34.9 °F /  1.6 °C 28.8 °F /  -1.8 °C 30.2in /  1021.7hPa Calm   3mph /  4.8km/h 78% 0in /  0.0mm 37 W/m2
16:05 35.1 °F /  1.7 °C 28.9 °F /  -1.7 °C 30.2in /  1021.7hPa Calm   2mph /  3.2km/h 78% 0in /  0.0mm 32 W/m2
16:10 35.1 °F /  1.7 °C 29.1 °F /  -1.6 °C 30.2in /  1021.7hPa Calm   3mph /  4.8km/h 79% 0in /  0.0mm 30 W/m2
16:15 34.9 °F /  1.6 °C 29.1 °F /  -1.6 °C 30.2in /  1021.7hPa Calm     79% 0in /  0.0mm 25 W/m2
16:20 34.9 °F /  1.6 °C 29.1 °F /  -1.6 °C 30.2in /  1021.3hPa Calm   3mph /  4.8km/h 79% 0in /  0.0mm 21 W/m2
16:25 34.9 °F /  1.6 °C 28.8 °F /  -1.8 °C 30.2in /  1021.3hPa WSW 0.9mph /  1.4km/h 4mph /  6.4km/h 78% 0in /  0.0mm 16 W/m2
16:30 34.9 °F /  1.6 °C 29.1 °F /  -1.6 °C 30.2in /  1021.7hPa NW 2.9mph /  4.7km/h 3mph /  4.8km/h 79% 0in /  0.0mm 12 W/m2
16:35 34.9 °F /  1.6 °C 29.1 °F /  -1.6 °C 30.2in /  1021.3hPa NNW 0.9mph /  1.4km/h 3mph /  4.8km/h 79% 0in /  0.0mm 11 W/m2
16:40 34.9 °F /  1.6 °C 29.1 °F /  -1.6 °C 30.2in /  1021.3hPa NE 0.9mph /  1.4km/h 2mph /  3.2km/h 79% 0in /  0.0mm 7 W/m2
16:45 34.9 °F /  1.6 °C 29.1 °F /  -1.6 °C 30.2in /  1021.3hPa Calm   1mph /  1.6km/h 79% 0in /  0.0mm 5 W/m2
16:50 34.9 °F /  1.6 °C 29.1 °F /  -1.6 °C 30.2in /  1021.3hPa NE 2mph /  3.2km/h 3mph /  4.8km/h 79% 0in /  0.0mm 5 W/m2
16:55 34.9 °F /  1.6 °C 29.1 °F /  -1.6 °C 30.2in /  1021.3hPa NNE 0.9mph /  1.4km/h 2mph /  3.2km/h 79% 0in /  0.0mm 0 W/m2
17:00 34.9 °F /  1.6 °C 29.1 °F /  -1.6 °C 30.2in /  1021.0hPa ENE 0.9mph /  1.4km/h 2mph /  3.2km/h 79% 0in /  0.0mm 0 W/m2
17:05 34.9 °F /  1.6 °C 29.1 °F /  -1.6 °C 30.2in /  1021.0hPa Calm   2mph /  3.2km/h 79% 0in /  0.0mm 0 W/m2
17:10 34.7 °F /  1.5 °C 28.9 °F /  -1.7 °C 30.2in /  1021.3hPa Calm   1mph /  1.6km/h 79% 0in /  0.0mm 0 W/m2
17:16 34.5 °F /  1.4 °C 28.9 °F /  -1.7 °C 30.2in /  1021.3hPa Calm   2mph /  3.2km/h 80% 0in /  0.0mm 0 W/m2
17:21 34.5 °F /  1.4 °C 28.9 °F /  -1.7 °C 30.2in /  1021.3hPa WNW 0.9mph /  1.4km/h 4mph /  6.4km/h 80% 0in /  0.0mm 0 W/m2
17:26 34.5 °F /  1.4 °C 28.9 °F /  -1.7 °C 30.2in /  1021.3hPa Calm   1mph /  1.6km/h 80% 0in /  0.0mm 0 W/m2
17:31 34.7 °F /  1.5 °C 29.1 °F /  -1.6 °C 30.2in /  1021.0hPa NW 0.9mph /  1.4km/h 4mph /  6.4km/h 80% 0in /  0.0mm 0 W/m2
17:36 34.5 °F /  1.4 °C 28.9 °F /  -1.7 °C 30.2in /  1021.0hPa WNW 0.9mph /  1.4km/h 3mph /  4.8km/h 80% 0in /  0.0mm 0 W/m2
17:41 34.7 °F /  1.5 °C 29.1 °F /  -1.6 °C 30.2in /  1021.3hPa Calm   6mph /  9.7km/h 80% 0in /  0.0mm 0 W/m2
17:46 34.7 °F /  1.5 °C 29.1 °F /  -1.6 °C 30.2in /  1021.3hPa NNW 0.9mph /  1.4km/h 3mph /  4.8km/h 80% 0in /  0.0mm 0 W/m2
17:51 34.9 °F /  1.6 °C 29.3 °F /  -1.5 °C 30.2in /  1021.3hPa NE 0.9mph /  1.4km/h 6mph /  9.7km/h 80% 0in /  0.0mm 0 W/m2
17:56 34.9 °F /  1.6 °C 29.3 °F /  -1.5 °C 30.2in /  1021.3hPa Calm   6mph /  9.7km/h 80% 0in /  0.0mm 0 W/m2
18:01 34.9 °F /  1.6 °C 29.3 °F /  -1.5 °C 30.2in /  1021.3hPa WNW 0.9mph /  1.4km/h 2mph /  3.2km/h 80% 0in /  0.0mm 0 W/m2
18:06 34.9 °F /  1.6 °C 29.3 °F /  -1.5 °C 30.2in /  1021.0hPa Calm   2mph /  3.2km/h 80% 0in /  0.0mm 0 W/m2
18:11 34.9 °F /  1.6 °C 29.3 °F /  -1.5 °C 30.1in /  1020.7hPa Calm   1mph /  1.6km/h 80% 0in /  0.0mm 0 W/m2
18:16 34.9 °F /  1.6 °C 29.3 °F /  -1.5 °C 30.1in /  1020.7hPa Calm   2mph /  3.2km/h 80% 0in /  0.0mm 0 W/m2
18:21 34.9 °F /  1.6 °C 29.1 °F /  -1.6 °C 30.2in /  1021.0hPa Calm   2mph /  3.2km/h 79% 0in /  0.0mm 0 W/m2
18:26 34.9 °F /  1.6 °C 29.3 °F /  -1.5 °C 30.1in /  1020.7hPa Calm   2mph /  3.2km/h 80% 0in /  0.0mm 0 W/m2
18:31 34.9 °F /  1.6 °C 29.3 °F /  -1.5 °C 30.1in /  1020.7hPa Calm   2mph /  3.2km/h 80% 0in /  0.0mm 0 W/m2
18:36 34.9 °F /  1.6 °C 29.3 °F /  -1.5 °C 30.1in /  1020.7hPa East 2mph /  3.2km/h 2mph /  3.2km/h 80% 0in /  0.0mm 0 W/m2
18:41 34.9 °F /  1.6 °C 29.3 °F /  -1.5 °C 30.1in /  1020.7hPa ENE 0.9mph /  1.4km/h 7mph /  11.3km/h 80% 0in /  0.0mm 0 W/m2
18:46 34.9 °F /  1.6 °C 29.3 °F /  -1.5 °C 30.1in /  1020.7hPa SW 0.9mph /  1.4km/h 4mph /  6.4km/h 80% 0in /  0.0mm 0 W/m2
18:51 34.9 °F /  1.6 °C 29.7 °F /  -1.3 °C 30.1in /  1020.7hPa North 2mph /  3.2km/h 7mph /  11.3km/h 81% 0in /  0.0mm 0 W/m2
18:56 34.5 °F /  1.4 °C 29.3 °F /  -1.5 °C 30.1in /  1020.7hPa Calm   1mph /  1.6km/h 81% 0in /  0.0mm 0 W/m2
19:01 34.5 °F /  1.4 °C 29.7 °F /  -1.3 °C 30.1in /  1020.7hPa SW 6.9mph /  11.1km/h 8mph /  12.9km/h 82% 0in /  0.0mm 0 W/m2
19:06 34.5 °F /  1.4 °C 29.7 °F /  -1.3 °C 30.1in /  1020.7hPa WNW 2.9mph /  4.7km/h 3mph /  4.8km/h 82% 0in /  0.0mm 0 W/m2
19:11 34.3 °F /  1.3 °C 29.5 °F /  -1.4 °C 30.1in /  1020.7hPa ENE 0.9mph /  1.4km/h 3mph /  4.8km/h 82% 0in /  0.0mm 0 W/m2
19:16 34.3 °F /  1.3 °C 29.7 °F /  -1.3 °C 30.1in /  1020.7hPa West 0.9mph /  1.4km/h 7mph /  11.3km/h 83% 0in /  0.0mm 0 W/m2
19:21 34.2 °F /  1.2 °C 29.8 °F /  -1.2 °C 30.1in /  1020.7hPa NNW 2mph /  3.2km/h 3mph /  4.8km/h 84% 0in /  0.0mm 0 W/m2
19:26 34.2 °F /  1.2 °C 29.8 °F /  -1.2 °C 30.1in /  1020.7hPa NW 2.9mph /  4.7km/h 3mph /  4.8km/h 84% 0in /  0.0mm 0 W/m2
19:31 34.2 °F /  1.2 °C 30.2 °F /  -1 °C 30.1in /  1020.7hPa NW 2.9mph /  4.7km/h 4mph /  6.4km/h 85% 0in /  0.0mm 0 W/m2
19:36 34.2 °F /  1.2 °C 30.2 °F /  -1 °C 30.1in /  1020.7hPa West 2mph /  3.2km/h 4mph /  6.4km/h 85% 0in /  0.0mm 0 W/m2
19:41 34.2 °F /  1.2 °C 30.2 °F /  -1 °C 30.1in /  1020.7hPa WNW 2.9mph /  4.7km/h 4mph /  6.4km/h 85% 0in /  0.0mm 0 W/m2
19:46 34.2 °F /  1.2 °C 30.4 °F /  -0.9 °C 30.1in /  1020.7hPa NE 0.9mph /  1.4km/h 3mph /  4.8km/h 86% 0in /  0.0mm 0 W/m2
19:51 34.2 °F /  1.2 °C 30.4 °F /  -0.9 °C 30.1in /  1020.7hPa WNW 2.9mph /  4.7km/h 4mph /  6.4km/h 86% 0in /  0.0mm 0 W/m2
19:56 34.2 °F /  1.2 °C 30.4 °F /  -0.9 °C 30.1in /  1020.7hPa WSW 0.9mph /  1.4km/h 3mph /  4.8km/h 86% 0in /  0.0mm 0 W/m2
20:01 34.2 °F /  1.2 °C 30.4 °F /  -0.9 °C 30.1in /  1020.7hPa North 2mph /  3.2km/h 3mph /  4.8km/h 86% 0in /  0.0mm 0 W/m2
20:06 34.2 °F /  1.2 °C 30.4 °F /  -0.9 °C 30.1in /  1020.7hPa West 0.9mph /  1.4km/h 4mph /  6.4km/h 86% 0in /  0.0mm 0 W/m2
20:11 34.2 °F /  1.2 °C 30.4 °F /  -0.9 °C 30.1in /  1020.7hPa West 0.9mph /  1.4km/h 3mph /  4.8km/h 86% 0in /  0.0mm 0 W/m2
20:16 34 °F /  1.1 °C 30.2 °F /  -1 °C 30.1in /  1020.3hPa East 2.9mph /  4.7km/h 3mph /  4.8km/h 86% 0in /  0.0mm 0 W/m2
20:21 34 °F /  1.1 °C 30.6 °F /  -0.8 °C 30.1in /  1020.3hPa WSW 2.9mph /  4.7km/h 4mph /  6.4km/h 87% 0in /  0.0mm 0 W/m2
20:26 34 °F /  1.1 °C 30.6 °F /  -0.8 °C 30.1in /  1020.3hPa Calm   2mph /  3.2km/h 87% 0in /  0.0mm 0 W/m2
20:31 34 °F /  1.1 °C 30.6 °F /  -0.8 °C 30.1in /  1020.3hPa NW 2mph /  3.2km/h 2mph /  3.2km/h 87% 0in /  0.0mm 0 W/m2
20:36 34 °F /  1.1 °C 30.6 °F /  -0.8 °C 30.1in /  1020.3hPa WNW 0.9mph /  1.4km/h 3mph /  4.8km/h 87% 0in /  0.0mm 0 W/m2
20:41 34 °F /  1.1 °C 30.6 °F /  -0.8 °C 30.1in /  1020.3hPa Calm   3mph /  4.8km/h 87% 0in /  0.0mm 0 W/m2
20:46 34 °F /  1.1 °C 30.6 °F /  -0.8 °C 30.1in /  1020.0hPa East 2mph /  3.2km/h 5mph /  8km/h 87% 0in /  0.0mm 0 W/m2
20:51 34 °F /  1.1 °C 30.7 °F /  -0.7 °C 30.1in /  1020.0hPa North 0.9mph /  1.4km/h 2mph /  3.2km/h 88% 0in /  0.0mm 0 W/m2
20:57 34 °F /  1.1 °C 30.7 °F /  -0.7 °C 30.1in /  1020.0hPa NW 2mph /  3.2km/h 3mph /  4.8km/h 88% 0in /  0.0mm 0 W/m2
21:02 34 °F /  1.1 °C 30.7 °F /  -0.7 °C 30.1in /  1019.6hPa Calm   4mph /  6.4km/h 88% 0in /  0.0mm 0 W/m2
21:07 34 °F /  1.1 °C 30.7 °F /  -0.7 °C 30.1in /  1019.6hPa Calm   1mph /  1.6km/h 88% 0in /  0.0mm 0 W/m2
21:12 34 °F /  1.1 °C 30.7 °F /  -0.7 °C 30.1in /  1019.6hPa WSW 0.9mph /  1.4km/h 2mph /  3.2km/h 88% 0in /  0.0mm 0 W/m2
21:17 34 °F /  1.1 °C 30.7 °F /  -0.7 °C 30.1in /  1019.6hPa NNW 2mph /  3.2km/h 7mph /  11.3km/h 88% 0in /  0.0mm 0 W/m2
21:22 34.2 °F /  1.2 °C 30.9 °F /  -0.6 °C 30.1in /  1019.6hPa North 0.9mph /  1.4km/h 4mph /  6.4km/h 88% 0in /  0.0mm 0 W/m2
21:27 34.2 °F /  1.2 °C 30.9 °F /  -0.6 °C 30.1in /  1019.6hPa West 0.9mph /  1.4km/h 7mph /  11.3km/h 88% 0in /  0.0mm 0 W/m2
21:32 34.2 °F /  1.2 °C 30.9 °F /  -0.6 °C 30.1in /  1019.6hPa NNW 0.9mph /  1.4km/h 6mph /  9.7km/h 88% 0in /  0.0mm 0 W/m2
21:37 34.2 °F /  1.2 °C 30.9 °F /  -0.6 °C 30.1in /  1019.6hPa SW 0.9mph /  1.4km/h 3mph /  4.8km/h 88% 0in /  0.0mm 0 W/m2
21:42 34.3 °F /  1.3 °C 31.1 °F /  -0.5 °C 30.1in /  1019.3hPa WNW 0.9mph /  1.4km/h 6mph /  9.7km/h 88% 0in /  0.0mm 0 W/m2
21:47 34.3 °F /  1.3 °C 31.1 °F /  -0.5 °C 30.1in /  1019.3hPa West 6.9mph /  11.1km/h 9mph /  14.5km/h 88% 0in /  0.0mm 0 W/m2
21:52 34.3 °F /  1.3 °C 31.1 °F /  -0.5 °C 30.1in /  1019.3hPa North 2.9mph /  4.7km/h 3mph /  4.8km/h 88% 0in /  0.0mm 0 W/m2
21:57 34.3 °F /  1.3 °C 30.9 °F /  -0.6 °C 30.1in /  1019.3hPa West 2mph /  3.2km/h 9mph /  14.5km/h 87% 0in /  0.0mm 0 W/m2
22:02 34.3 °F /  1.3 °C 31.1 °F /  -0.5 °C 30.1in /  1019.3hPa NW 2mph /  3.2km/h 7mph /  11.3km/h 88% 0in /  0.0mm 0 W/m2
22:07 34.3 °F /  1.3 °C 31.1 °F /  -0.5 °C 30.1in /  1019.6hPa NW 2.9mph /  4.7km/h 4mph /  6.4km/h 88% 0in /  0.0mm 0 W/m2
22:12 34.3 °F /  1.3 °C 31.1 °F /  -0.5 °C 30.1in /  1019.3hPa NW 0.9mph /  1.4km/h 5mph /  8km/h 88% 0in /  0.0mm 0 W/m2
22:17 34.5 °F /  1.4 °C 31.3 °F /  -0.4 °C 30.1in /  1019.6hPa North 2mph /  3.2km/h 2mph /  3.2km/h 88% 0in /  0.0mm 0 W/m2
22:22 34.5 °F /  1.4 °C 31.3 °F /  -0.4 °C 30.1in /  1019.3hPa SSE 0.9mph /  1.4km/h 5mph /  8km/h 88% 0in /  0.0mm 0 W/m2
22:27 34.5 °F /  1.4 °C 31.3 °F /  -0.4 °C 30.1in /  1019.0hPa East 2.9mph /  4.7km/h 3mph /  4.8km/h 88% 0in /  0.0mm 0 W/m2
22:32 34.5 °F /  1.4 °C 31.3 °F /  -0.4 °C 30.1in /  1019.0hPa NW 4mph /  6.4km/h 4mph /  6.4km/h 88% 0in /  0.0mm 0 W/m2
22:37 34.5 °F /  1.4 °C 31.3 °F /  -0.4 °C 30.1in /  1019.3hPa NW 0.9mph /  1.4km/h 5mph /  8km/h 88% 0in /  0.0mm 0 W/m2
22:42 34.5 °F /  1.4 °C 31.3 °F /  -0.4 °C 30.1in /  1019.0hPa Calm   2mph /  3.2km/h 88% 0in /  0.0mm 0 W/m2
22:47 34.5 °F /  1.4 °C 31.3 °F /  -0.4 °C 30.1in /  1019.0hPa NNE 0.9mph /  1.4km/h 2mph /  3.2km/h 88% 0in /  0.0mm 0 W/m2
22:52 34.7 °F /  1.5 °C 31.5 °F /  -0.3 °C 30.1in /  1019.0hPa WSW 0.9mph /  1.4km/h 2mph /  3.2km/h 88% 0in /  0.0mm 0 W/m2
22:57 34.7 °F /  1.5 °C 31.5 °F /  -0.3 °C 30.1in /  1018.6hPa West 6.9mph /  11.1km/h 7mph /  11.3km/h 88% 0in /  0.0mm 0 W/m2
23:02 34.9 °F /  1.6 °C 31.6 °F /  -0.2 °C 30.1in /  1018.6hPa NNE 0.9mph /  1.4km/h 3mph /  4.8km/h 88% 0in /  0.0mm 0 W/m2
23:07 34.9 °F /  1.6 °C 31.6 °F /  -0.2 °C 30.1in /  1018.6hPa SW 6.9mph /  11.1km/h 10mph /  16.1km/h 88% 0in /  0.0mm 0 W/m2
23:12 34.9 °F /  1.6 °C 31.6 °F /  -0.2 °C 30.1in /  1018.6hPa WNW 2mph /  3.2km/h 6mph /  9.7km/h 88% 0in /  0.0mm 0 W/m2
23:17 35.1 °F /  1.7 °C 31.8 °F /  -0.1 °C 30.1in /  1018.3hPa Calm   4mph /  6.4km/h 88% 0in /  0.0mm 0 W/m2
23:22 35.1 °F /  1.7 °C 31.8 °F /  -0.1 °C 30.1in /  1018.6hPa West 0.9mph /  1.4km/h 5mph /  8km/h 88% 0in /  0.0mm 0 W/m2
23:27 35.1 °F /  1.7 °C 31.8 °F /  -0.1 °C 30.1in /  1018.6hPa NW 0.9mph /  1.4km/h 7mph /  11.3km/h 88% 0in /  0.0mm 0 W/m2
23:32 35.1 °F /  1.7 °C 31.8 °F /  -0.1 °C 30.1in /  1018.6hPa NNE 2mph /  3.2km/h 4mph /  6.4km/h 88% 0in /  0.0mm 0 W/m2
23:37 35.1 °F /  1.7 °C 31.8 °F /  -0.1 °C 30.1in /  1018.3hPa East 6.9mph /  11.1km/h 8mph /  12.9km/h 88% 0in /  0.0mm 0 W/m2
23:42 35.2 °F /  1.8 °C 32 °F /  0 °C 30.1in /  1018.3hPa WNW 0.9mph /  1.4km/h 5mph /  8km/h 88% 0in /  0.0mm 0 W/m2
23:47 35.2 °F /  1.8 °C 32 °F /  0 °C 30.1in /  1018.3hPa North 2.9mph /  4.7km/h 6mph /  9.7km/h 88% 0in /  0.0mm 0 W/m2
23:52 35.2 °F /  1.8 °C 32 °F /  0 °C 30.1in /  1018.3hPa NW 0.9mph /  1.4km/h 3mph /  4.8km/h 88% 0in /  0.0mm 0 W/m2
23:57 35.2 °F /  1.8 °C 32 °F /  0 °C 30.1in /  1018.3hPa NNW 2mph /  3.2km/h 9mph /  14.5km/h 88% 0in /  0.0mm 0 W/m2
Juneau County Weather
Compliments of Weather Underground - 4 mb